sensor_id;sensor_type;location;lat;lon;timestamp;pressure;altitude;pressure_sealevel;temperature;humidity
23361;BME280;11852;50.082;18.554;2023-10-31T00:00:34;97129.0;;;15.04;91.03
23361;BME280;11852;50.082;18.554;2023-10-31T00:03:19;97121.0;;;15.02;90.88
23361;BME280;11852;50.082;18.554;2023-10-31T00:05:28;97111.0;;;15.02;90.65
23361;BME280;11852;50.082;18.554;2023-10-31T00:12:14;97100.0;;;15.1;89.05
23361;BME280;11852;50.082;18.554;2023-10-31T00:13:25;97095.0;;;15.09;88.57
23361;BME280;11852;50.082;18.554;2023-10-31T00:15:18;97098.0;;;15.14;87.51
23361;BME280;11852;50.082;18.554;2023-10-31T00:17:07;97089.0;;;15.18;87.3
23361;BME280;11852;50.082;18.554;2023-10-31T00:18:17;97086.0;;;15.19;87.0
23361;BME280;11852;50.082;18.554;2023-10-31T00:19:35;97079.0;;;15.23;87.21
23361;BME280;11852;50.082;18.554;2023-10-31T00:20:46;97079.0;;;15.23;86.84
23361;BME280;11852;50.082;18.554;2023-10-31T00:24:16;97078.0;;;15.3;85.98
23361;BME280;11852;50.082;18.554;2023-10-31T00:25:44;97079.0;;;15.3;85.43
23361;BME280;11852;50.082;18.554;2023-10-31T00:27:37;97066.0;;;15.33;84.79
23361;BME280;11852;50.082;18.554;2023-10-31T00:29:22;97063.0;;;15.38;84.73
23361;BME280;11852;50.082;18.554;2023-10-31T00:32:53;97054.0;;;15.37;83.95
23361;BME280;11852;50.082;18.554;2023-10-31T00:34:42;97056.0;;;15.48;83.33
23361;BME280;11852;50.082;18.554;2023-10-31T00:41:09;97035.0;;;15.61;81.74
23361;BME280;11852;50.082;18.554;2023-10-31T00:42:30;97040.0;;;15.64;81.58
23361;BME280;11852;50.082;18.554;2023-10-31T00:44:20;97029.0;;;15.76;80.44
23361;BME280;11852;50.082;18.554;2023-10-31T00:45:42;97033.0;;;15.81;80.62
23361;BME280;11852;50.082;18.554;2023-10-31T00:48:49;97023.0;;;15.85;79.79
23361;BME280;11852;50.082;18.554;2023-10-31T00:50:33;97018.0;;;15.97;79.35
23361;BME280;11852;50.082;18.554;2023-10-31T00:52:08;97011.0;;;16.06;78.54
23361;BME280;11852;50.082;18.554;2023-10-31T00:53:39;97004.0;;;16.07;78.69
23361;BME280;11852;50.082;18.554;2023-10-31T00:55:40;97002.0;;;16.04;78.42
23361;BME280;11852;50.082;18.554;2023-10-31T00:57:14;96994.0;;;16.04;77.99
23361;BME280;11852;50.082;18.554;2023-10-31T00:58:29;96984.0;;;16.05;78.05
23361;BME280;11852;50.082;18.554;2023-10-31T00:59:58;96990.0;;;16.05;77.8
23361;BME280;11852;50.082;18.554;2023-10-31T01:02:09;96992.0;;;16.04;77.19
23361;BME280;11852;50.082;18.554;2023-10-31T01:03:41;96987.0;;;16.11;77.29
23361;BME280;11852;50.082;18.554;2023-10-31T01:04:48;96988.0;;;16.06;76.43
23361;BME280;11852;50.082;18.554;2023-10-31T01:06:30;96986.0;;;16.17;76.21
23361;BME280;11852;50.082;18.554;2023-10-31T01:07:46;96980.0;;;16.2;76.2
23361;BME280;11852;50.082;18.554;2023-10-31T01:09:07;96979.0;;;16.22;76.11
23361;BME280;11852;50.082;18.554;2023-10-31T01:10:25;96974.0;;;16.22;75.29
23361;BME280;11852;50.082;18.554;2023-10-31T01:11:45;96964.0;;;16.23;75.37
23361;BME280;11852;50.082;18.554;2023-10-31T01:13:09;96965.0;;;16.22;74.91
23361;BME280;11852;50.082;18.554;2023-10-31T01:15:21;96954.0;;;16.33;74.87
23361;BME280;11852;50.082;18.554;2023-10-31T01:17:38;96953.0;;;16.36;73.87
23361;BME280;11852;50.082;18.554;2023-10-31T01:18:52;96953.0;;;16.35;73.93
23361;BME280;11852;50.082;18.554;2023-10-31T01:20:14;96955.0;;;16.36;73.38
23361;BME280;11852;50.082;18.554;2023-10-31T01:21:39;96959.0;;;16.37;72.8
23361;BME280;11852;50.082;18.554;2023-10-31T01:23:25;96950.0;;;16.42;72.66
23361;BME280;11852;50.082;18.554;2023-10-31T01:25:06;96954.0;;;16.41;72.24
23361;BME280;11852;50.082;18.554;2023-10-31T01:26:20;96953.0;;;16.49;72.29
23361;BME280;11852;50.082;18.554;2023-10-31T01:27:32;96959.0;;;16.53;71.85
23361;BME280;11852;50.082;18.554;2023-10-31T01:28:40;96961.0;;;16.51;71.55
23361;BME280;11852;50.082;18.554;2023-10-31T01:29:55;96958.0;;;16.54;71.62
23361;BME280;11852;50.082;18.554;2023-10-31T01:32:06;96956.0;;;16.56;70.98
23361;BME280;11852;50.082;18.554;2023-10-31T01:34:51;96961.0;;;16.87;70.14
23361;BME280;11852;50.082;18.554;2023-10-31T01:38:05;96935.0;;;17.1;69.1
23361;BME280;11852;50.082;18.554;2023-10-31T01:39:11;96933.0;;;17.01;69.11
23361;BME280;11852;50.082;18.554;2023-10-31T01:40:37;96929.0;;;17.01;69.7
23361;BME280;11852;50.082;18.554;2023-10-31T01:44:05;96927.0;;;17.04;69.25
23361;BME280;11852;50.082;18.554;2023-10-31T01:45:12;96925.0;;;17.11;68.87
23361;BME280;11852;50.082;18.554;2023-10-31T01:46:59;96927.0;;;17.08;68.68
23361;BME280;11852;50.082;18.554;2023-10-31T01:50:22;96929.0;;;17.09;68.87
23361;BME280;11852;50.082;18.554;2023-10-31T01:52:00;96929.0;;;17.04;68.95
23361;BME280;11852;50.082;18.554;2023-10-31T01:53:05;96924.0;;;17.0;69.03
23361;BME280;11852;50.082;18.554;2023-10-31T01:55:08;96924.0;;;17.0;69.58
23361;BME280;11852;50.082;18.554;2023-10-31T01:57:59;96913.0;;;16.87;69.6
23361;BME280;11852;50.082;18.554;2023-10-31T01:59:20;96912.0;;;16.79;70.01
23361;BME280;11852;50.082;18.554;2023-10-31T02:00:28;96913.0;;;16.84;69.82
23361;BME280;11852;50.082;18.554;2023-10-31T02:01:43;96909.0;;;16.86;69.69
23361;BME280;11852;50.082;18.554;2023-10-31T02:05:10;96905.0;;;16.7;70.33
23361;BME280;11852;50.082;18.554;2023-10-31T02:06:29;96900.0;;;16.66;70.33
23361;BME280;11852;50.082;18.554;2023-10-31T02:10:10;96894.0;;;16.66;70.79
23361;BME280;11852;50.082;18.554;2023-10-31T02:11:19;96884.0;;;16.65;70.71
23361;BME280;11852;50.082;18.554;2023-10-31T02:18:36;96868.0;;;16.7;70.82
23361;BME280;11852;50.082;18.554;2023-10-31T02:20:12;96865.0;;;16.64;70.84
23361;BME280;11852;50.082;18.554;2023-10-31T02:23:18;96865.0;;;16.66;70.93
23361;BME280;11852;50.082;18.554;2023-10-31T02:25:17;96862.0;;;16.57;71.06
23361;BME280;11852;50.082;18.554;2023-10-31T02:27:18;96854.0;;;16.54;71.29
23361;BME280;11852;50.082;18.554;2023-10-31T02:28:46;96859.0;;;16.68;70.87
23361;BME280;11852;50.082;18.554;2023-10-31T02:30:01;96859.0;;;16.56;70.97
23361;BME280;11852;50.082;18.554;2023-10-31T02:35:09;96857.0;;;16.37;71.36
23361;BME280;11852;50.082;18.554;2023-10-31T02:36:20;96862.0;;;16.37;71.73
23361;BME280;11852;50.082;18.554;2023-10-31T02:37:32;96861.0;;;16.41;71.83
23361;BME280;11852;50.082;18.554;2023-10-31T02:39:01;96856.0;;;16.43;71.84
23361;BME280;11852;50.082;18.554;2023-10-31T02:40:13;96853.0;;;16.37;72.09
23361;BME280;11852;50.082;18.554;2023-10-31T02:41:58;96849.0;;;16.38;71.99
23361;BME280;11852;50.082;18.554;2023-10-31T02:43:25;96857.0;;;16.35;71.87
23361;BME280;11852;50.082;18.554;2023-10-31T02:46:22;96854.0;;;16.37;71.94
23361;BME280;11852;50.082;18.554;2023-10-31T02:49:00;96855.0;;;16.53;71.62
23361;BME280;11852;50.082;18.554;2023-10-31T02:50:41;96849.0;;;16.53;71.55
23361;BME280;11852;50.082;18.554;2023-10-31T02:51:52;96841.0;;;16.54;71.51
23361;BME280;11852;50.082;18.554;2023-10-31T02:52:58;96839.0;;;16.44;71.66
23361;BME280;11852;50.082;18.554;2023-10-31T02:55:26;96846.0;;;16.5;71.71
23361;BME280;11852;50.082;18.554;2023-10-31T02:57:01;96839.0;;;16.39;72.08
23361;BME280;11852;50.082;18.554;2023-10-31T02:59:10;96822.0;;;16.39;72.33
23361;BME280;11852;50.082;18.554;2023-10-31T03:00:27;96824.0;;;16.32;72.41
23361;BME280;11852;50.082;18.554;2023-10-31T03:02:03;96828.0;;;16.31;72.65
23361;BME280;11852;50.082;18.554;2023-10-31T03:03:46;96827.0;;;16.3;72.57
23361;BME280;11852;50.082;18.554;2023-10-31T03:05:21;96830.0;;;16.31;72.71
23361;BME280;11852;50.082;18.554;2023-10-31T03:06:44;96829.0;;;16.31;72.82
23361;BME280;11852;50.082;18.554;2023-10-31T03:08:51;96831.0;;;16.25;73.17
23361;BME280;11852;50.082;18.554;2023-10-31T03:12:07;96826.0;;;16.19;73.61
23361;BME280;11852;50.082;18.554;2023-10-31T03:13:35;96831.0;;;16.19;73.64
23361;BME280;11852;50.082;18.554;2023-10-31T03:16:29;96826.0;;;16.1;74.09
23361;BME280;11852;50.082;18.554;2023-10-31T03:17:47;96827.0;;;16.08;73.92
23361;BME280;11852;50.082;18.554;2023-10-31T03:19:16;96820.0;;;16.16;74.02
23361;BME280;11852;50.082;18.554;2023-10-31T03:20:49;96822.0;;;16.17;73.96
23361;BME280;11852;50.082;18.554;2023-10-31T03:21:59;96818.0;;;16.15;74.14
23361;BME280;11852;50.082;18.554;2023-10-31T03:23:20;96812.0;;;16.08;74.44
23361;BME280;11852;50.082;18.554;2023-10-31T03:24:36;96813.0;;;16.07;74.61
23361;BME280;11852;50.082;18.554;2023-10-31T03:26:23;96816.0;;;16.07;74.49
23361;BME280;11852;50.082;18.554;2023-10-31T03:28:35;96808.0;;;16.06;74.58
23361;BME280;11852;50.082;18.554;2023-10-31T03:30:21;96808.0;;;16.0;74.87
23361;BME280;11852;50.082;18.554;2023-10-31T03:32:02;96800.0;;;16.09;74.23
23361;BME280;11852;50.082;18.554;2023-10-31T03:33:50;96797.0;;;16.05;74.09
23361;BME280;11852;50.082;18.554;2023-10-31T03:36:22;96794.0;;;16.14;74.26
23361;BME280;11852;50.082;18.554;2023-10-31T03:38:24;96787.0;;;16.11;74.41
23361;BME280;11852;50.082;18.554;2023-10-31T03:39:52;96789.0;;;16.14;74.35
23361;BME280;11852;50.082;18.554;2023-10-31T03:41:18;96788.0;;;16.19;74.21
23361;BME280;11852;50.082;18.554;2023-10-31T03:44:41;96785.0;;;16.17;73.55
23361;BME280;11852;50.082;18.554;2023-10-31T03:47:19;96781.0;;;16.15;73.37
23361;BME280;11852;50.082;18.554;2023-10-31T03:49:18;96776.0;;;16.2;73.28
23361;BME280;11852;50.082;18.554;2023-10-31T03:53:17;96750.0;;;16.3;73.33
23361;BME280;11852;50.082;18.554;2023-10-31T03:54:23;96746.0;;;16.29;73.48
23361;BME280;11852;50.082;18.554;2023-10-31T03:57:31;96729.0;;;16.33;73.11
23361;BME280;11852;50.082;18.554;2023-10-31T03:58:53;96722.0;;;16.34;73.35
23361;BME280;11852;50.082;18.554;2023-10-31T04:01:14;96713.0;;;16.32;72.85
23361;BME280;11852;50.082;18.554;2023-10-31T04:02:20;96721.0;;;16.35;72.85
23361;BME280;11852;50.082;18.554;2023-10-31T04:03:50;96714.0;;;16.44;72.67
23361;BME280;11852;50.082;18.554;2023-10-31T04:05:41;96714.0;;;16.41;72.18
23361;BME280;11852;50.082;18.554;2023-10-31T04:06:56;96717.0;;;16.41;72.17
23361;BME280;11852;50.082;18.554;2023-10-31T04:08:21;96721.0;;;16.57;71.8
23361;BME280;11852;50.082;18.554;2023-10-31T04:09:29;96726.0;;;16.57;71.59
23361;BME280;11852;50.082;18.554;2023-10-31T04:10:47;96721.0;;;16.42;71.46
23361;BME280;11852;50.082;18.554;2023-10-31T04:12:12;96731.0;;;16.52;71.46
23361;BME280;11852;50.082;18.554;2023-10-31T04:13:17;96730.0;;;16.57;71.42
23361;BME280;11852;50.082;18.554;2023-10-31T04:14:22;96734.0;;;16.59;71.33
23361;BME280;11852;50.082;18.554;2023-10-31T04:15:52;96740.0;;;16.59;71.39
23361;BME280;11852;50.082;18.554;2023-10-31T04:17:16;96741.0;;;16.53;71.04
23361;BME280;11852;50.082;18.554;2023-10-31T04:18:44;96744.0;;;16.58;71.2
23361;BME280;11852;50.082;18.554;2023-10-31T04:19:50;96748.0;;;16.55;71.28
23361;BME280;11852;50.082;18.554;2023-10-31T04:20:55;96744.0;;;16.49;71.07
23361;BME280;11852;50.082;18.554;2023-10-31T04:22:00;96747.0;;;16.61;71.31
23361;BME280;11852;50.082;18.554;2023-10-31T04:23:05;96747.0;;;16.65;71.06
23361;BME280;11852;50.082;18.554;2023-10-31T04:24:12;96751.0;;;16.48;71.2
23361;BME280;11852;50.082;18.554;2023-10-31T04:25:18;96751.0;;;16.61;70.89
23361;BME280;11852;50.082;18.554;2023-10-31T04:27:42;96749.0;;;16.64;71.2
23361;BME280;11852;50.082;18.554;2023-10-31T04:29:24;96753.0;;;16.64;71.02
23361;BME280;11852;50.082;18.554;2023-10-31T04:30:40;96744.0;;;16.71;71.06
23361;BME280;11852;50.082;18.554;2023-10-31T04:32:10;96749.0;;;16.73;71.0
23361;BME280;11852;50.082;18.554;2023-10-31T04:33:20;96743.0;;;16.65;71.28
23361;BME280;11852;50.082;18.554;2023-10-31T04:34:43;96742.0;;;16.62;70.92
23361;BME280;11852;50.082;18.554;2023-10-31T04:35:49;96743.0;;;16.67;70.86
23361;BME280;11852;50.082;18.554;2023-10-31T04:37:05;96742.0;;;16.72;70.5
23361;BME280;11852;50.082;18.554;2023-10-31T04:38:24;96738.0;;;16.76;70.18
23361;BME280;11852;50.082;18.554;2023-10-31T04:39:30;96737.0;;;16.7;70.14
23361;BME280;11852;50.082;18.554;2023-10-31T04:40:58;96735.0;;;16.71;70.22
23361;BME280;11852;50.082;18.554;2023-10-31T04:42:10;96734.0;;;16.75;69.98
23361;BME280;11852;50.082;18.554;2023-10-31T04:43:16;96737.0;;;16.72;69.88
23361;BME280;11852;50.082;18.554;2023-10-31T04:44:22;96735.0;;;16.69;69.9
23361;BME280;11852;50.082;18.554;2023-10-31T04:45:39;96728.0;;;16.78;69.33
23361;BME280;11852;50.082;18.554;2023-10-31T04:46:45;96724.0;;;16.83;69.25
23361;BME280;11852;50.082;18.554;2023-10-31T04:48:01;96722.0;;;16.94;69.2
23361;BME280;11852;50.082;18.554;2023-10-31T04:49:19;96717.0;;;16.83;69.07
23361;BME280;11852;50.082;18.554;2023-10-31T04:50:25;96725.0;;;16.92;68.93
23361;BME280;11852;50.082;18.554;2023-10-31T04:51:37;96721.0;;;17.01;68.64
23361;BME280;11852;50.082;18.554;2023-10-31T04:52:58;96720.0;;;16.99;68.33
23361;BME280;11852;50.082;18.554;2023-10-31T04:54:20;96731.0;;;17.06;68.34
23361;BME280;11852;50.082;18.554;2023-10-31T04:55:39;96717.0;;;17.09;68.2
23361;BME280;11852;50.082;18.554;2023-10-31T04:56:53;96724.0;;;17.14;68.32
23361;BME280;11852;50.082;18.554;2023-10-31T05:00:02;96730.0;;;17.1;68.29
23361;BME280;11852;50.082;18.554;2023-10-31T05:02:55;96741.0;;;17.01;68.58
23361;BME280;11852;50.082;18.554;2023-10-31T05:04:03;96739.0;;;17.02;68.79
23361;BME280;11852;50.082;18.554;2023-10-31T05:06:40;96740.0;;;17.09;68.78
23361;BME280;11852;50.082;18.554;2023-10-31T05:07:54;96741.0;;;17.04;68.7
23361;BME280;11852;50.082;18.554;2023-10-31T05:09:51;96740.0;;;17.15;68.56
23361;BME280;11852;50.082;18.554;2023-10-31T05:11:05;96745.0;;;17.14;68.61
23361;BME280;11852;50.082;18.554;2023-10-31T05:12:13;96748.0;;;17.21;68.33
23361;BME280;11852;50.082;18.554;2023-10-31T05:13:19;96741.0;;;17.13;68.51
23361;BME280;11852;50.082;18.554;2023-10-31T05:14:26;96731.0;;;17.14;67.54
23361;BME280;11852;50.082;18.554;2023-10-31T05:15:34;96735.0;;;16.95;68.14
23361;BME280;11852;50.082;18.554;2023-10-31T05:16:41;96739.0;;;16.87;68.36
23361;BME280;11852;50.082;18.554;2023-10-31T05:17:59;96737.0;;;16.89;67.94
23361;BME280;11852;50.082;18.554;2023-10-31T05:19:43;96745.0;;;17.01;67.89
23361;BME280;11852;50.082;18.554;2023-10-31T05:20:56;96749.0;;;17.02;67.57
23361;BME280;11852;50.082;18.554;2023-10-31T05:22:25;96752.0;;;17.07;67.76
23361;BME280;11852;50.082;18.554;2023-10-31T05:23:56;96754.0;;;17.09;67.45
23361;BME280;11852;50.082;18.554;2023-10-31T05:25:18;96749.0;;;17.11;67.42
23361;BME280;11852;50.082;18.554;2023-10-31T05:26:27;96755.0;;;17.07;66.76
23361;BME280;11852;50.082;18.554;2023-10-31T05:27:33;96760.0;;;17.12;67.21
23361;BME280;11852;50.082;18.554;2023-10-31T05:28:39;96751.0;;;17.15;67.25
23361;BME280;11852;50.082;18.554;2023-10-31T05:29:50;96754.0;;;17.12;66.93
23361;BME280;11852;50.082;18.554;2023-10-31T05:30:56;96766.0;;;17.1;66.94
23361;BME280;11852;50.082;18.554;2023-10-31T05:32:13;96763.0;;;17.19;66.93
23361;BME280;11852;50.082;18.554;2023-10-31T05:33:19;96759.0;;;17.12;66.54
23361;BME280;11852;50.082;18.554;2023-10-31T05:34:42;96759.0;;;17.19;66.05
23361;BME280;11852;50.082;18.554;2023-10-31T05:37:09;96767.0;;;17.15;66.16
23361;BME280;11852;50.082;18.554;2023-10-31T05:38:16;96767.0;;;17.19;66.25
23361;BME280;11852;50.082;18.554;2023-10-31T05:40:28;96770.0;;;17.25;65.79
23361;BME280;11852;50.082;18.554;2023-10-31T05:41:35;96775.0;;;17.24;65.73
23361;BME280;11852;50.082;18.554;2023-10-31T05:42:45;96774.0;;;17.26;65.76
23361;BME280;11852;50.082;18.554;2023-10-31T05:43:52;96770.0;;;17.25;65.73
23361;BME280;11852;50.082;18.554;2023-10-31T05:45:02;96768.0;;;17.18;65.26
23361;BME280;11852;50.082;18.554;2023-10-31T05:46:09;96773.0;;;17.25;65.59
23361;BME280;11852;50.082;18.554;2023-10-31T05:47:14;96772.0;;;17.36;65.69
23361;BME280;11852;50.082;18.554;2023-10-31T05:48:19;96775.0;;;17.34;65.58
23361;BME280;11852;50.082;18.554;2023-10-31T05:49:24;96775.0;;;17.25;65.43
23361;BME280;11852;50.082;18.554;2023-10-31T05:50:28;96781.0;;;17.37;65.5
23361;BME280;11852;50.082;18.554;2023-10-31T05:51:37;96788.0;;;17.28;65.4
23361;BME280;11852;50.082;18.554;2023-10-31T05:52:43;96793.0;;;17.38;65.58
23361;BME280;11852;50.082;18.554;2023-10-31T05:53:52;96797.0;;;17.35;65.43
23361;BME280;11852;50.082;18.554;2023-10-31T05:55:02;96808.0;;;17.35;65.09
23361;BME280;11852;50.082;18.554;2023-10-31T05:56:14;96809.0;;;17.32;65.02
23361;BME280;11852;50.082;18.554;2023-10-31T05:59:11;96819.0;;;17.54;65.22
23361;BME280;11852;50.082;18.554;2023-10-31T06:03:12;96823.0;;;17.65;64.99
23361;BME280;11852;50.082;18.554;2023-10-31T06:06:06;96826.0;;;17.74;64.72
23361;BME280;11852;50.082;18.554;2023-10-31T06:07:35;96824.0;;;17.7;65.16
23361;BME280;11852;50.082;18.554;2023-10-31T06:08:41;96820.0;;;17.74;65.25
23361;BME280;11852;50.082;18.554;2023-10-31T06:09:46;96831.0;;;17.75;65.48
23361;BME280;11852;50.082;18.554;2023-10-31T06:10:51;96836.0;;;17.83;65.37
23361;BME280;11852;50.082;18.554;2023-10-31T06:11:57;96848.0;;;17.83;65.96
23361;BME280;11852;50.082;18.554;2023-10-31T06:13:02;96834.0;;;17.77;65.99
23361;BME280;11852;50.082;18.554;2023-10-31T06:16:48;96854.0;;;17.93;66.17
23361;BME280;11852;50.082;18.554;2023-10-31T06:18:52;96844.0;;;17.78;66.39
23361;BME280;11852;50.082;18.554;2023-10-31T06:19:58;96847.0;;;17.75;66.67
23361;BME280;11852;50.082;18.554;2023-10-31T06:21:03;96846.0;;;17.72;66.84
23361;BME280;11852;50.082;18.554;2023-10-31T06:22:08;96845.0;;;17.7;66.98
23361;BME280;11852;50.082;18.554;2023-10-31T06:23:13;96854.0;;;17.68;67.33
23361;BME280;11852;50.082;18.554;2023-10-31T06:24:32;96859.0;;;17.68;67.38
23361;BME280;11852;50.082;18.554;2023-10-31T06:25:37;96868.0;;;17.6;67.58
23361;BME280;11852;50.082;18.554;2023-10-31T06:26:42;96864.0;;;17.62;67.73
23361;BME280;11852;50.082;18.554;2023-10-31T06:27:47;96869.0;;;17.65;67.71
23361;BME280;11852;50.082;18.554;2023-10-31T06:29:55;96868.0;;;17.53;67.76
23361;BME280;11852;50.082;18.554;2023-10-31T06:31:03;96874.0;;;17.58;68.03
23361;BME280;11852;50.082;18.554;2023-10-31T06:32:08;96872.0;;;17.57;68.31
23361;BME280;11852;50.082;18.554;2023-10-31T06:33:14;96873.0;;;17.7;67.91
23361;BME280;11852;50.082;18.554;2023-10-31T06:34:20;96874.0;;;17.57;68.33
23361;BME280;11852;50.082;18.554;2023-10-31T06:35:25;96879.0;;;17.61;68.3
23361;BME280;11852;50.082;18.554;2023-10-31T06:36:30;96876.0;;;17.45;68.76
23361;BME280;11852;50.082;18.554;2023-10-31T06:37:36;96884.0;;;17.59;68.38
23361;BME280;11852;50.082;18.554;2023-10-31T06:41:10;96884.0;;;17.42;69.07
23361;BME280;11852;50.082;18.554;2023-10-31T06:42:17;96886.0;;;17.46;69.13
23361;BME280;11852;50.082;18.554;2023-10-31T06:50:39;96874.0;;;17.29;68.85
23361;BME280;11852;50.082;18.554;2023-10-31T06:51:44;96871.0;;;17.39;68.87
23361;BME280;11852;50.082;18.554;2023-10-31T06:52:49;96876.0;;;17.39;69.07
23361;BME280;11852;50.082;18.554;2023-10-31T06:53:54;96876.0;;;17.48;69.32
23361;BME280;11852;50.082;18.554;2023-10-31T06:54:59;96874.0;;;17.24;68.95
23361;BME280;11852;50.082;18.554;2023-10-31T06:56:04;96878.0;;;17.38;68.93
23361;BME280;11852;50.082;18.554;2023-10-31T06:57:09;96879.0;;;17.42;69.03
23361;BME280;11852;50.082;18.554;2023-10-31T06:58:14;96877.0;;;17.43;69.24
23361;BME280;11852;50.082;18.554;2023-10-31T06:59:19;96879.0;;;17.47;69.35
23361;BME280;11852;50.082;18.554;2023-10-31T07:04:19;96863.0;;;17.24;69.78
23361;BME280;11852;50.082;18.554;2023-10-31T07:05:25;96876.0;;;17.19;69.48
23361;BME280;11852;50.082;18.554;2023-10-31T07:06:30;96875.0;;;17.22;69.52
23361;BME280;11852;50.082;18.554;2023-10-31T07:07:35;96867.0;;;17.29;69.21
23361;BME280;11852;50.082;18.554;2023-10-31T07:08:40;96869.0;;;17.09;68.96
23361;BME280;11852;50.082;18.554;2023-10-31T07:09:55;96883.0;;;17.21;68.68
23361;BME280;11852;50.082;18.554;2023-10-31T07:11:00;96874.0;;;17.16;69.13
23361;BME280;11852;50.082;18.554;2023-10-31T07:12:05;96887.0;;;17.12;68.71
23361;BME280;11852;50.082;18.554;2023-10-31T07:13:11;96888.0;;;17.22;69.06
23361;BME280;11852;50.082;18.554;2023-10-31T07:14:15;96887.0;;;17.16;69.19
23361;BME280;11852;50.082;18.554;2023-10-31T07:15:20;96887.0;;;17.15;69.21
23361;BME280;11852;50.082;18.554;2023-10-31T07:16:25;96893.0;;;17.23;69.03
23361;BME280;11852;50.082;18.554;2023-10-31T07:17:38;96894.0;;;17.24;69.2
23361;BME280;11852;50.082;18.554;2023-10-31T07:18:43;96895.0;;;17.01;69.15
23361;BME280;11852;50.082;18.554;2023-10-31T07:19:48;96895.0;;;17.18;69.0
23361;BME280;11852;50.082;18.554;2023-10-31T07:20:53;96899.0;;;17.22;69.12
23361;BME280;11852;50.082;18.554;2023-10-31T07:21:58;96897.0;;;17.19;68.86
23361;BME280;11852;50.082;18.554;2023-10-31T07:23:08;96908.0;;;17.26;69.2
23361;BME280;11852;50.082;18.554;2023-10-31T07:24:13;96904.0;;;17.23;68.69
23361;BME280;11852;50.082;18.554;2023-10-31T07:25:18;96911.0;;;17.25;68.66
23361;BME280;11852;50.082;18.554;2023-10-31T07:26:23;96912.0;;;17.26;69.15
23361;BME280;11852;50.082;18.554;2023-10-31T07:27:29;96912.0;;;17.19;69.31
23361;BME280;11852;50.082;18.554;2023-10-31T07:28:41;96920.0;;;17.16;69.0
23361;BME280;11852;50.082;18.554;2023-10-31T07:29:47;96925.0;;;17.15;69.11
23361;BME280;11852;50.082;18.554;2023-10-31T07:30:52;96920.0;;;17.03;69.42
23361;BME280;11852;50.082;18.554;2023-10-31T07:31:57;96929.0;;;16.95;69.02
23361;BME280;11852;50.082;18.554;2023-10-31T07:33:02;96931.0;;;17.07;68.89
23361;BME280;11852;50.082;18.554;2023-10-31T07:34:07;96936.0;;;17.15;68.91
23361;BME280;11852;50.082;18.554;2023-10-31T07:35:12;96943.0;;;17.04;68.82
23361;BME280;11852;50.082;18.554;2023-10-31T07:36:17;96939.0;;;17.02;68.82
23361;BME280;11852;50.082;18.554;2023-10-31T07:48:33;96957.0;;;17.04;68.49
23361;BME280;11852;50.082;18.554;2023-10-31T07:49:38;96954.0;;;16.86;68.81
23361;BME280;11852;50.082;18.554;2023-10-31T07:50:43;96966.0;;;16.96;69.37
23361;BME280;11852;50.082;18.554;2023-10-31T07:51:48;96969.0;;;16.82;68.78
23361;BME280;11852;50.082;18.554;2023-10-31T07:54:04;96987.0;;;16.74;69.44
23361;BME280;11852;50.082;18.554;2023-10-31T07:58:24;96980.0;;;17.01;68.94
23361;BME280;11852;50.082;18.554;2023-10-31T07:59:29;96984.0;;;16.95;68.98
23361;BME280;11852;50.082;18.554;2023-10-31T08:00:34;96980.0;;;17.08;68.96
23361;BME280;11852;50.082;18.554;2023-10-31T08:01:39;96973.0;;;17.04;69.09
23361;BME280;11852;50.082;18.554;2023-10-31T08:02:44;96979.0;;;17.04;69.22
23361;BME280;11852;50.082;18.554;2023-10-31T08:03:51;96988.0;;;16.8;69.96
23361;BME280;11852;50.082;18.554;2023-10-31T08:04:56;96992.0;;;16.76;70.01
23361;BME280;11852;50.082;18.554;2023-10-31T08:06:01;96997.0;;;16.74;70.31
23361;BME280;11852;50.082;18.554;2023-10-31T08:07:06;96992.0;;;16.7;70.39
23361;BME280;11852;50.082;18.554;2023-10-31T08:08:12;97005.0;;;16.68;70.37
23361;BME280;11852;50.082;18.554;2023-10-31T08:09:17;97000.0;;;16.6;70.66
23361;BME280;11852;50.082;18.554;2023-10-31T08:10:22;97008.0;;;16.77;70.29
23361;BME280;11852;50.082;18.554;2023-10-31T08:11:27;97009.0;;;16.55;70.77
23361;BME280;11852;50.082;18.554;2023-10-31T08:12:32;97008.0;;;16.72;70.9
23361;BME280;11852;50.082;18.554;2023-10-31T08:13:37;97009.0;;;16.85;70.12
23361;BME280;11852;50.082;18.554;2023-10-31T08:14:42;97002.0;;;16.89;70.34
23361;BME280;11852;50.082;18.554;2023-10-31T08:15:47;97015.0;;;16.71;70.63
23361;BME280;11852;50.082;18.554;2023-10-31T08:16:52;97009.0;;;16.74;70.65
23361;BME280;11852;50.082;18.554;2023-10-31T08:17:57;97002.0;;;16.52;71.08
23361;BME280;11852;50.082;18.554;2023-10-31T08:19:02;97012.0;;;16.5;71.49
23361;BME280;11852;50.082;18.554;2023-10-31T08:20:15;97006.0;;;16.47;71.64
23361;BME280;11852;50.082;18.554;2023-10-31T08:21:20;97020.0;;;16.57;71.85
23361;BME280;11852;50.082;18.554;2023-10-31T08:22:25;97024.0;;;16.54;71.71
23361;BME280;11852;50.082;18.554;2023-10-31T08:23:30;97033.0;;;16.45;72.36
23361;BME280;11852;50.082;18.554;2023-10-31T08:24:35;97039.0;;;16.56;72.45
23361;BME280;11852;50.082;18.554;2023-10-31T08:25:40;97035.0;;;16.54;72.21
23361;BME280;11852;50.082;18.554;2023-10-31T08:26:45;97034.0;;;16.44;72.82
23361;BME280;11852;50.082;18.554;2023-10-31T08:27:50;97042.0;;;16.4;73.14
23361;BME280;11852;50.082;18.554;2023-10-31T08:28:55;97042.0;;;16.33;73.82
23361;BME280;11852;50.082;18.554;2023-10-31T08:30:01;97042.0;;;16.35;74.0
23361;BME280;11852;50.082;18.554;2023-10-31T08:32:34;97045.0;;;16.3;75.93
23361;BME280;11852;50.082;18.554;2023-10-31T08:33:39;97050.0;;;16.45;76.05
23361;BME280;11852;50.082;18.554;2023-10-31T08:34:44;97057.0;;;16.42;77.89
23361;BME280;11852;50.082;18.554;2023-10-31T08:35:49;97054.0;;;16.12;79.15
23361;BME280;11852;50.082;18.554;2023-10-31T08:36:55;97055.0;;;16.11;78.72
23361;BME280;11852;50.082;18.554;2023-10-31T08:38:05;97063.0;;;16.2;79.08
23361;BME280;11852;50.082;18.554;2023-10-31T08:39:11;97063.0;;;16.31;79.16
23361;BME280;11852;50.082;18.554;2023-10-31T08:40:16;97058.0;;;16.21;80.63